Time;durP1;ratioP1;P1;durP2;ratioP2;P2;SDS_P1;SDS_P2;PMS_P1;PMS_P2;Temp;Humidity;BMP_temperature;BMP_pressure;BME280_temperature;BME280_humidity;BME280_pressure;Samples;Min_cycle;Max_cycle;Signal;HPM_P1;HPM_P2
2023/12/25 00:01:30;;;;;;;6.93;5.00;;;;;;;10.39;100.00;100409.53;5284176;28;20040;-71
2023/12/25 00:04:02;;;;;;;4.90;4.33;;;;;;;10.43;100.00;100412.94;5283817;28;20191;-72
2023/12/25 00:06:33;;;;;;;4.97;4.20;;;;;;;10.41;100.00;100406.91;5283954;28;20128;-71
2023/12/25 00:09:04;;;;;;;4.50;3.87;;;;;;;10.39;100.00;100401.72;5283780;28;20025;-71
2023/12/25 00:11:36;;;;;;;4.83;3.80;;;;;;;10.40;100.00;100403.47;5283086;28;20036;-71
2023/12/25 00:14:07;;;;;;;6.07;3.53;;;;;;;10.38;100.00;100401.75;5283436;28;20058;-71
2023/12/25 00:16:40;;;;;;;3.90;3.50;;;;;;;10.34;100.00;100411.38;5283727;28;20447;-71
2023/12/25 00:19:12;;;;;;;4.85;3.42;;;;;;;10.37;100.00;100400.06;5284133;28;20452;-72
2023/12/25 00:21:43;;;;;;;3.67;3.17;;;;;;;10.35;100.00;100394.00;5283241;28;20028;-72
2023/12/25 00:24:15;;;;;;;4.60;3.77;;;;;;;10.38;100.00;100386.13;5283609;28;20025;-72
2023/12/25 00:26:46;;;;;;;4.17;3.50;;;;;;;10.36;100.00;100375.72;5283245;28;20051;-72
2023/12/25 00:29:17;;;;;;;5.57;4.20;;;;;;;10.33;100.00;100373.19;5283477;28;20024;-72
2023/12/25 00:31:49;;;;;;;5.77;4.00;;;;;;;10.33;100.00;100388.81;5283400;28;20044;-72
2023/12/25 00:34:20;;;;;;;4.60;3.73;;;;;;;10.36;100.00;100386.16;5283747;28;20384;-71
2023/12/25 00:36:51;;;;;;;7.03;4.23;;;;;;;10.38;100.00;100388.72;5283784;28;20071;-71
2023/12/25 00:39:23;;;;;;;7.37;3.73;;;;;;;10.36;100.00;100382.69;5283273;28;20074;-71
2023/12/25 00:41:54;;;;;;;5.00;3.90;;;;;;;10.31;100.00;100394.91;5283494;28;20037;-71
2023/12/25 00:44:25;;;;;;;6.43;4.43;;;;;;;10.32;100.00;100407.03;5283046;28;20047;-72
2023/12/25 00:46:57;;;;;;;5.63;4.70;;;;;;;10.31;100.00;100390.56;5283082;28;20041;-71
2023/12/25 00:49:28;;;;;;;5.63;4.30;;;;;;;10.32;100.00;100391.41;5283223;28;20032;-71
2023/12/25 00:51:59;;;;;;;6.13;4.77;;;;;;;10.34;100.00;100414.00;5282010;28;20040;-71
2023/12/25 00:54:31;;;;;;;7.37;4.57;;;;;;;10.38;100.00;100412.19;5283438;28;20039;-71
2023/12/25 00:57:03;;;;;;;6.63;5.15;;;;;;;10.38;100.00;100413.06;5283339;28;20043;-70
2023/12/25 00:59:34;;;;;;;5.37;4.87;;;;;;;10.38;100.00;100417.38;5283400;28;20028;-71
2023/12/25 01:02:06;;;;;;;6.23;4.87;;;;;;;10.38;100.00;100414.78;5282974;28;20117;-70
2023/12/25 01:04:37;;;;;;;5.80;4.93;;;;;;;10.38;100.00;100418.28;5283288;28;20028;-71
2023/12/25 01:07:08;;;;;;;6.53;5.67;;;;;;;10.38;100.00;100425.22;5283163;28;20037;-72
2023/12/25 01:09:40;;;;;;;6.53;4.57;;;;;;;10.38;100.00;100422.59;5283125;28;20112;-72
2023/12/25 01:12:12;;;;;;;5.63;5.03;;;;;;;10.38;100.00;100426.09;5283445;28;20039;-72
2023/12/25 01:14:44;;;;;;;7.63;5.03;;;;;;;10.37;100.00;100426.13;5282678;28;20263;-71
2023/12/25 01:17:15;;;;;;;5.85;4.80;;;;;;;10.44;100.00;100421.66;5282597;28;20041;-72
2023/12/25 01:19:46;;;;;;;7.17;4.37;;;;;;;10.43;100.00;100425.13;5283203;28;20040;-72
2023/12/25 01:22:18;;;;;;;5.13;4.20;;;;;;;10.39;100.00;100424.34;5282673;28;20033;-70
2023/12/25 01:24:50;;;;;;;6.63;4.88;;;;;;;10.41;100.00;100412.13;5282703;28;20109;-71
2023/12/25 01:27:21;;;;;;;6.00;4.97;;;;;;;10.45;100.00;100419.00;5282613;28;20115;-72
2023/12/25 01:29:52;;;;;;;7.33;5.47;;;;;;;10.43;100.00;100425.13;5281316;28;20128;-71
2023/12/25 01:32:24;;;;;;;7.00;5.07;;;;;;;10.46;100.00;100423.31;5282527;28;20040;-71
2023/12/25 01:34:55;;;;;;;5.83;4.83;;;;;;;10.47;100.00;100432.88;5282384;28;20051;-71
2023/12/25 01:37:27;;;;;;;6.73;5.10;;;;;;;10.44;100.00;100435.53;5282529;28;20028;-71
2023/12/25 01:39:58;;;;;;;5.80;5.10;;;;;;;10.43;100.00;100438.16;5282465;28;20029;-71
2023/12/25 01:42:29;;;;;;;5.20;4.70;;;;;;;10.47;100.00;100437.22;5282476;28;20028;-71
2023/12/25 01:45:01;;;;;;;7.53;5.57;;;;;;;10.47;100.00;100438.06;5283051;28;20063;-72
2023/12/25 01:47:32;;;;;;;7.03;6.03;;;;;;;10.48;100.00;100425.91;5282927;28;20055;-71
2023/12/25 01:50:06;;;;;;;7.93;6.23;;;;;;;10.47;100.00;100426.81;5283060;28;20123;-71
2023/12/25 01:52:37;;;;;;;8.15;7.35;;;;;;;10.45;100.00;100424.22;5282008;28;20170;-70
2023/12/25 01:55:09;;;;;;;9.27;6.63;;;;;;;10.43;100.00;100428.59;5282950;28;20531;-71
2023/12/25 01:57:41;;;;;;;8.57;7.57;;;;;;;10.43;100.00;100457.25;5282560;28;20033;-71
2023/12/25 02:00:13;;;;;;;8.32;7.45;;;;;;;10.43;100.00;100444.22;5282287;28;20158;-71
2023/12/25 02:02:45;;;;;;;9.82;7.85;;;;;;;10.44;100.00;100451.16;5282166;28;20502;-71
2023/12/25 02:05:17;;;;;;;7.53;6.67;;;;;;;10.43;100.00;100440.75;5282669;28;20028;-72
2023/12/25 02:07:50;;;;;;;13.00;6.97;;;;;;;10.43;100.00;100432.94;5282249;28;20111;-71
2023/12/25 02:10:29;;;;;;;7.57;6.78;;;;;;;10.41;100.00;100432.97;5282476;28;20432;-71
2023/12/25 02:13:02;;;;;;;8.50;6.70;;;;;;;10.43;100.00;100452.03;5282088;28;20422;-71
2023/12/25 02:15:34;;;;;;;7.57;5.95;;;;;;;10.40;100.00;100452.97;5282014;28;20033;-72
2023/12/25 02:18:06;;;;;;;8.60;6.67;;;;;;;10.44;100.00;100458.97;5281953;28;20035;-72
2023/12/25 02:20:37;;;;;;;7.73;6.30;;;;;;;10.49;100.00;100461.50;5281926;28;20104;-72
2023/12/25 02:23:12;;;;;;;7.87;6.63;;;;;;;10.48;100.00;100471.09;5281919;28;20036;-71
2023/12/25 02:25:57;;;;;;;7.85;7.15;;;;;;;10.50;100.00;100458.88;5281987;28;20432;-71
2023/12/25 02:28:28;;;;;;;7.75;6.95;;;;;;;10.53;100.00;100458.81;5281842;28;20027;-71
2023/12/25 02:31:00;;;;;;;7.77;7.07;;;;;;;10.48;100.00;100468.47;5282105;28;20060;-72
2023/12/25 02:33:31;;;;;;;7.60;6.47;;;;;;;10.48;100.00;100460.66;5282331;28;20039;-71
2023/12/25 02:36:03;;;;;;;7.43;6.00;;;;;;;10.60;100.00;100458.72;5284980;28;20500;-71
2023/12/25 02:38:34;;;;;;;7.07;6.37;;;;;;;10.58;100.00;100463.97;5285509;28;20028;-71
2023/12/25 02:41:06;;;;;;;6.93;6.10;;;;;;;10.64;100.00;100468.19;5285396;28;20052;-72
2023/12/25 02:43:37;;;;;;;7.47;6.87;;;;;;;10.60;100.00;100463.94;5285388;28;20025;-72
2023/12/25 02:46:08;;;;;;;8.90;6.53;;;;;;;10.61;100.00;100465.63;5285088;28;20116;-72
2023/12/25 02:48:40;;;;;;;7.57;6.20;;;;;;;10.60;100.00;100470.00;5285543;28;20032;-72
2023/12/25 02:51:11;;;;;;;6.53;5.90;;;;;;;10.63;100.00;100471.69;5284769;28;20037;-71
2023/12/25 02:53:42;;;;;;;6.80;6.17;;;;;;;10.62;100.00;100473.44;5285467;28;20124;-72
2023/12/25 02:56:14;;;;;;;6.53;5.83;;;;;;;10.64;100.00;100470.78;5284765;28;20032;-72
2023/12/25 02:58:45;;;;;;;6.77;6.10;;;;;;;10.67;100.00;100474.19;5284957;28;20078;-72
2023/12/25 03:01:16;;;;;;;7.93;7.17;;;;;;;10.66;100.00;100482.91;5284984;28;20060;-72
2023/12/25 03:03:48;;;;;;;6.20;5.60;;;;;;;10.64;100.00;100489.91;5284963;28;20495;-72
2023/12/25 03:06:19;;;;;;;7.27;5.93;;;;;;;10.65;100.00;100493.38;5285162;28;20036;-72
2023/12/25 03:08:50;;;;;;;6.07;5.57;;;;;;;10.71;100.00;100483.69;5284796;28;20032;-72
2023/12/25 03:11:22;;;;;;;6.97;6.07;;;;;;;10.73;100.00;100481.91;5285162;28;20032;-72
2023/12/25 03:13:53;;;;;;;6.93;6.23;;;;;;;10.68;100.00;100478.53;5284941;28;20036;-71
2023/12/25 03:16:24;;;;;;;6.80;5.67;;;;;;;10.68;100.00;100478.53;5284397;28;20115;-72
2023/12/25 03:18:56;;;;;;;6.23;5.63;;;;;;;10.69;100.00;100471.56;5284691;28;20055;-71
2023/12/25 03:21:27;;;;;;;6.57;5.87;;;;;;;10.68;100.00;100467.25;5284415;28;20065;-71
2023/12/25 03:23:59;;;;;;;8.17;5.87;;;;;;;10.69;100.00;100468.94;5284521;28;20480;-71
2023/12/25 03:26:30;;;;;;;6.47;5.30;;;;;;;10.67;100.00;100478.56;5284697;28;20058;-71
2023/12/25 03:29:03;;;;;;;6.30;5.67;;;;;;;10.74;100.00;100478.44;5284924;28;20086;-71
2023/12/25 03:31:34;;;;;;;7.28;6.68;;;;;;;10.79;100.00;100464.44;5284494;28;20020;-71
2023/12/25 03:34:05;;;;;;;7.40;6.17;;;;;;;10.80;100.00;100469.63;5284565;28;20479;-71
2023/12/25 03:36:37;;;;;;;6.33;5.73;;;;;;;10.89;100.00;100494.69;5285160;28;20053;-72
2023/12/25 03:39:08;;;;;;;6.57;5.70;;;;;;;10.89;100.00;100487.69;5284417;28;20052;-73
2023/12/25 03:41:40;;;;;;;6.77;5.87;;;;;;;10.86;100.00;100495.59;5284383;28;20051;-73
2023/12/25 03:44:11;;;;;;;7.70;6.33;;;;;;;10.81;100.00;100491.34;5284350;28;20108;-72
2023/12/25 03:46:42;;;;;;;6.10;5.60;;;;;;;10.73;100.00;100494.94;5283312;28;20079;-72
2023/12/25 03:49:14;;;;;;;6.60;6.00;;;;;;;10.66;100.00;100497.69;5284839;28;20036;-72
2023/12/25 03:51:45;;;;;;;6.77;6.13;;;;;;;10.65;100.00;100496.84;5284129;28;20486;-71
2023/12/25 03:54:16;;;;;;;7.40;5.73;;;;;;;10.58;100.00;100498.69;5284455;28;20043;-71
2023/12/25 03:56:48;;;;;;;7.33;6.57;;;;;;;10.59;100.00;100496.94;5284083;28;20422;-71
2023/12/25 03:59:19;;;;;;;6.53;5.87;;;;;;;10.60;100.00;100510.84;5284111;28;20112;-71
2023/12/25 04:01:50;;;;;;;6.57;5.50;;;;;;;10.59;100.00;100504.75;5284224;28;20033;-71
2023/12/25 04:04:22;;;;;;;5.93;5.40;;;;;;;10.59;100.00;100509.97;5284253;28;20033;-71
2023/12/25 04:06:53;;;;;;;5.77;5.13;;;;;;;10.55;100.00;100523.97;5283938;28;20048;-71
2023/12/25 04:09:24;;;;;;;7.40;4.70;;;;;;;10.54;100.00;100520.47;5282578;28;20032;-71
2023/12/25 04:11:56;;;;;;;5.63;4.43;;;;;;;10.58;100.00;100506.50;5283537;28;20102;-70
2023/12/25 04:14:28;;;;;;;6.90;5.00;;;;;;;10.58;100.00;100503.06;5283158;28;20038;-70
2023/12/25 04:16:59;;;;;;;6.18;4.95;;;;;;;10.53;100.00;100497.91;5283631;28;20109;-71
2023/12/25 04:19:32;;;;;;;6.53;4.63;;;;;;;10.51;100.00;100494.50;5283568;28;20036;-71
2023/12/25 04:22:03;;;;;;;;;;;;;;;10.43;100.00;100488.53;5283873;28;20424;-71
2023/12/25 04:24:35;;;;;;;4.88;4.40;;;;;;;10.47;100.00;100495.41;5283252;28;19909;-71
2023/12/25 04:27:06;;;;;;;5.67;4.57;;;;;;;10.50;100.00;100489.31;5283507;28;20055;-72
2023/12/25 04:29:37;;;;;;;6.53;4.53;;;;;;;10.47;100.00;100473.72;5283424;28;20456;-72
2023/12/25 04:32:09;;;;;;;4.63;3.93;;;;;;;10.44;100.00;100487.66;5282017;28;20037;-72
2023/12/25 04:34:40;;;;;;;4.13;3.73;;;;;;;10.46;100.00;100495.44;5283116;28;20037;-71
2023/12/25 04:37:11;;;;;;;4.03;3.33;;;;;;;10.46;100.00;100478.03;5283194;28;20050;-71
2023/12/25 04:39:43;;;;;;;4.53;3.20;;;;;;;10.51;100.00;100464.94;5283764;28;20051;-71
2023/12/25 04:42:14;;;;;;;4.77;3.70;;;;;;;10.49;100.00;100477.16;5283220;28;20024;-71
2023/12/25 04:44:45;;;;;;;4.07;3.67;;;;;;;10.55;100.00;100475.28;5283118;28;20119;-72
2023/12/25 04:47:17;;;;;;;4.43;3.67;;;;;;;10.60;100.00;100474.34;5282032;28;20067;-71
2023/12/25 04:49:48;;;;;;;5.30;3.53;;;;;;;10.62;100.00;100477.78;5283340;28;20036;-71
2023/12/25 04:52:19;;;;;;;4.13;3.10;;;;;;;10.63;100.00;100469.94;5283402;28;20071;-72
2023/12/25 04:54:51;;;;;;;4.13;3.53;;;;;;;10.61;100.00;100463.91;5283066;28;20029;-71
2023/12/25 04:57:22;;;;;;;5.40;3.40;;;;;;;10.62;100.00;100470.81;5283132;28;20345;-72
2023/12/25 04:59:53;;;;;;;5.23;3.80;;;;;;;10.57;100.00;100460.47;5283161;28;20482;-71
2023/12/25 05:02:25;;;;;;;5.20;4.70;;;;;;;10.56;100.00;100455.28;5282734;28;20067;-71
2023/12/25 05:04:56;;;;;;;4.17;3.73;;;;;;;10.52;100.00;100448.44;5282854;28;20037;-72
2023/12/25 05:07:27;;;;;;;6.07;4.00;;;;;;;10.48;100.00;100460.66;5282502;28;20043;-72
2023/12/25 05:09:59;;;;;;;4.70;4.20;;;;;;;10.45;100.00;100452.88;5282776;28;20474;-71
2023/12/25 05:12:31;;;;;;;4.90;4.10;;;;;;;10.42;100.00;100454.66;5282813;28;20028;-71
2023/12/25 05:15:02;;;;;;;4.20;3.80;;;;;;;10.37;100.00;100460.84;5282799;28;20043;-72
2023/12/25 05:17:34;;;;;;;4.30;3.90;;;;;;;10.36;100.00;100466.06;5282836;28;20036;-71
2023/12/25 05:20:07;;;;;;;4.03;3.60;;;;;;;10.36;100.00;100459.09;5282886;28;20096;-71
2023/12/25 05:22:38;;;;;;;3.90;3.50;;;;;;;10.35;100.00;100470.44;5283396;28;20051;-72
2023/12/25 05:25:09;;;;;;;4.60;3.53;;;;;;;10.36;100.00;100466.91;5282812;28;20033;-71
2023/12/25 05:27:41;;;;;;;3.87;3.47;;;;;;;10.38;100.00;100459.97;5282653;28;20357;-71
2023/12/25 05:30:12;;;;;;;4.07;3.03;;;;;;;10.38;100.00;100451.25;5282875;28;20042;-72
2023/12/25 05:32:44;;;;;;;4.03;2.90;;;;;;;10.42;100.00;100454.66;5282517;28;20032;-71
2023/12/25 05:35:15;;;;;;;2.90;2.60;;;;;;;10.44;100.00;100458.13;5282405;28;20468;-71
2023/12/25 05:37:46;;;;;;;3.33;2.77;;;;;;;10.42;100.00;100452.06;5281385;28;20028;-72
2023/12/25 05:40:18;;;;;;;3.50;2.60;;;;;;;10.42;100.00;100449.47;5282539;28;20033;-71
2023/12/25 05:42:49;;;;;;;4.83;2.83;;;;;;;10.45;100.00;100462.44;5282768;28;20028;-72
2023/12/25 05:45:22;;;;;;;3.13;2.60;;;;;;;10.45;100.00;100446.81;5282535;28;20060;-72
2023/12/25 05:47:53;;;;;;;3.97;3.47;;;;;;;10.49;100.00;100462.34;5282454;28;20043;-72
2023/12/25 05:50:24;;;;;;;3.63;3.10;;;;;;;10.51;100.00;100455.41;5282630;28;20460;-72
2023/12/25 05:52:56;;;;;;;3.57;3.27;;;;;;;10.54;100.00;100472.72;5282164;28;20029;-71
2023/12/25 05:55:27;;;;;;;3.97;3.07;;;;;;;10.52;100.00;100446.66;5282516;28;20025;-72
2023/12/25 05:57:58;;;;;;;3.23;2.90;;;;;;;10.50;100.00;100445.00;5282384;28;20028;-72
2023/12/25 06:00:30;;;;;;;4.97;3.13;;;;;;;10.45;100.00;100455.50;5282098;28;20055;-71
2023/12/25 06:03:01;;;;;;;4.97;2.93;;;;;;;10.46;100.00;100457.19;5282967;28;20082;-72
2023/12/25 06:05:32;;;;;;;4.33;3.37;;;;;;;10.43;100.00;100466.81;5282138;28;20143;-71
2023/12/25 06:08:04;;;;;;;3.50;3.20;;;;;;;10.38;100.00;100467.78;5282464;28;20036;-72
2023/12/25 06:10:35;;;;;;;4.20;3.80;;;;;;;10.42;100.00;100465.09;5285626;28;20043;-72
2023/12/25 06:13:06;;;;;;;4.90;3.60;;;;;;;10.38;100.00;100457.34;5286314;28;20132;-71
2023/12/25 06:15:38;;;;;;;4.73;3.70;;;;;;;10.36;100.00;100453.03;5286354;28;20025;-71
2023/12/25 06:18:09;;;;;;;4.90;3.70;;;;;;;10.36;100.00;100455.66;5286211;28;20028;-71
2023/12/25 06:20:41;;;;;;;4.57;3.90;;;;;;;10.36;100.00;100453.91;5286534;28;20024;-71
2023/12/25 06:23:12;;;;;;;4.57;3.90;;;;;;;10.37;100.00;100465.19;5284840;28;20428;-71
2023/12/25 06:25:44;;;;;;;4.40;4.00;;;;;;;10.38;100.00;100466.91;5286755;28;20032;-71
2023/12/25 06:28:15;;;;;;;4.80;4.20;;;;;;;10.37;100.00;100454.78;5285684;28;20029;-71
2023/12/25 06:30:46;;;;;;;4.17;3.77;;;;;;;10.36;100.00;100451.28;5286243;28;20353;-72
2023/12/25 06:33:18;;;;;;;4.53;3.73;;;;;;;10.38;100.00;100453.88;5285607;28;20025;-72
2023/12/25 06:35:50;;;;;;;4.85;4.38;;;;;;;10.38;100.00;100454.75;5285465;28;20139;-71
2023/12/25 06:38:22;;;;;;;5.00;3.67;;;;;;;10.38;100.00;100448.66;5285704;28;20039;-71
2023/12/25 06:40:53;;;;;;;4.53;4.10;;;;;;;10.37;100.00;100466.03;5285749;28;20062;-71
2023/12/25 06:43:24;;;;;;;4.43;3.90;;;;;;;10.40;100.00;100454.72;5285750;28;20128;-72
2023/12/25 06:45:56;;;;;;;4.10;3.70;;;;;;;10.40;100.00;100452.13;5285640;28;20115;-72
2023/12/25 06:48:27;;;;;;;4.93;4.00;;;;;;;10.44;100.00;100464.19;5285853;28;20029;-72
2023/12/25 06:51:00;;;;;;;5.23;3.93;;;;;;;10.43;100.00;100462.47;5285539;28;20025;-72
2023/12/25 06:53:31;;;;;;;4.88;3.60;;;;;;;10.41;100.00;100464.25;5285182;28;20346;-72
2023/12/25 06:56:03;;;;;;;5.10;4.33;;;;;;;10.42;100.00;100459.88;5285676;28;20454;-72
2023/12/25 06:58:35;;;;;;;4.90;4.40;;;;;;;10.44;100.00;100464.19;5285478;28;20375;-71
2023/12/25 07:01:06;;;;;;;6.63;4.67;;;;;;;10.42;100.00;100470.31;5285768;28;20035;-72
2023/12/25 07:03:39;;;;;;;6.10;5.60;;;;;;;10.44;100.00;100463.34;5285371;28;20117;-72
2023/12/25 07:06:11;;;;;;;5.80;5.30;;;;;;;10.43;100.00;100459.00;5285268;28;20029;-72
2023/12/25 07:08:42;;;;;;;6.30;5.70;;;;;;;10.38;100.00;100454.75;5284978;28;20055;-72
2023/12/25 07:11:14;;;;;;;6.70;6.10;;;;;;;10.38;100.00;100454.75;5285318;28;20024;-72
2023/12/25 07:13:45;;;;;;;7.00;6.30;;;;;;;10.42;100.00;100470.31;5285089;28;20082;-72
2023/12/25 07:16:21;;;;;;;7.70;6.47;;;;;;;10.40;100.00;100484.25;5285089;28;20357;-72
2023/12/25 07:18:53;;;;;;;7.45;6.75;;;;;;;10.43;100.00;100479.84;5285675;28;20025;-71
2023/12/25 07:21:24;;;;;;;7.35;6.65;;;;;;;10.45;100.00;100481.56;5284724;28;20037;-72
2023/12/25 07:23:56;;;;;;;7.47;6.77;;;;;;;10.43;100.00;100478.09;5283663;28;20065;-71
2023/12/25 07:26:28;;;;;;;7.67;7.03;;;;;;;10.44;100.00;100489.41;5284855;28;20140;-72
2023/12/25 07:29:00;;;;;;;7.35;6.68;;;;;;;10.48;100.00;100485.84;5284474;28;20029;-71
2023/12/25 07:31:31;;;;;;;8.17;7.47;;;;;;;10.48;100.00;100486.72;5285126;28;20039;-72
2023/12/25 07:34:03;;;;;;;7.53;6.83;;;;;;;10.45;100.00;100501.53;5284757;28;20040;-71
2023/12/25 07:36:34;;;;;;;8.03;7.33;;;;;;;10.46;100.00;100501.50;5284031;28;20568;-72
2023/12/25 07:39:05;;;;;;;7.47;6.77;;;;;;;10.48;100.00;100504.06;5284928;28;20033;-72
2023/12/25 07:41:37;;;;;;;8.00;7.30;;;;;;;10.47;100.00;100499.78;5284575;28;20033;-72
2023/12/25 07:44:08;;;;;;;8.00;7.30;;;;;;;10.50;100.00;100513.59;5284474;28;20332;-73
2023/12/25 07:46:39;;;;;;;7.87;7.17;;;;;;;10.48;100.00;100502.34;5284467;28;20115;-72
2023/12/25 07:49:11;;;;;;;7.00;6.33;;;;;;;10.49;100.00;100518.84;5284405;28;20079;-72
2023/12/25 07:51:42;;;;;;;7.50;6.90;;;;;;;10.48;100.00;100512.78;5284269;28;20451;-71
2023/12/25 07:54:14;;;;;;;7.77;7.03;;;;;;;10.44;100.00;100518.91;5284239;28;20067;-71
2023/12/25 07:56:45;;;;;;;7.87;7.17;;;;;;;10.44;100.00;100521.53;5284181;28;20038;-70
2023/12/25 07:59:20;;;;;;;8.13;6.90;;;;;;;10.43;100.00;100526.75;5284241;28;20032;-71
2023/12/25 08:01:52;;;;;;;7.18;6.47;;;;;;;10.42;100.00;100527.63;5284135;28;20029;-71
2023/12/25 08:04:23;;;;;;;7.73;7.03;;;;;;;10.40;100.00;100531.13;5284134;28;20537;-70
2023/12/25 08:06:55;;;;;;;8.20;7.40;;;;;;;10.40;100.00;100528.53;5284030;28;20043;-71
2023/12/25 08:09:26;;;;;;;8.07;7.27;;;;;;;10.39;100.00;100537.22;5284088;28;20538;-70
2023/12/25 08:11:58;;;;;;;8.33;7.53;;;;;;;10.38;100.00;100547.66;5284265;28;20112;-71
2023/12/25 08:14:30;;;;;;;9.13;7.78;;;;;;;10.38;100.00;100532.03;5283544;28;20063;-71
2023/12/25 08:17:01;;;;;;;8.77;7.30;;;;;;;10.38;100.00;100547.66;5282671;28;20116;-71
2023/12/25 08:19:32;;;;;;;7.63;6.93;;;;;;;10.39;100.00;100549.41;5284487;28;20119;-71
2023/12/25 08:22:04;;;;;;;7.57;6.87;;;;;;;10.39;100.00;100559.81;5282490;28;20054;-71
2023/12/25 08:24:35;;;;;;;7.90;7.20;;;;;;;10.38;100.00;100558.97;5283688;28;20113;-70
2023/12/25 08:27:06;;;;;;;8.07;7.27;;;;;;;10.38;100.00;100558.09;5281684;28;20101;-71
2023/12/25 08:29:38;;;;;;;7.33;6.63;;;;;;;10.38;100.00;100561.59;5283487;28;20055;-71
2023/12/25 08:32:09;;;;;;;7.33;6.63;;;;;;;10.40;100.00;100556.34;5283076;28;20437;-71
2023/12/25 08:34:41;;;;;;;7.00;6.03;;;;;;;10.40;100.00;100564.16;5283046;28;20126;-71
2023/12/25 08:37:13;;;;;;;6.35;5.75;;;;;;;10.39;100.00;100562.44;5283542;28;20123;-71
2023/12/25 08:39:44;;;;;;;6.70;6.10;;;;;;;10.38;100.00;100566.78;5283356;28;20111;-71
2023/12/25 08:42:15;;;;;;;6.90;6.30;;;;;;;10.40;100.00;100569.38;5283165;28;20174;-72
2023/12/25 08:44:47;;;;;;;7.50;6.77;;;;;;;10.41;100.00;100571.06;5283531;28;20040;-71
2023/12/25 08:47:19;;;;;;;6.70;6.10;;;;;;;10.40;100.00;100572.81;5283145;28;20136;-71
2023/12/25 08:49:50;;;;;;;6.90;5.97;;;;;;;10.43;100.00;100573.66;5283103;28;20103;-72
2023/12/25 08:52:22;;;;;;;7.50;6.80;;;;;;;10.41;100.00;100584.09;5282966;28;20035;-72
2023/12/25 08:54:53;;;;;;;7.97;7.17;;;;;;;10.42;100.00;100577.13;5283398;28;20351;-72
2023/12/25 08:57:25;;;;;;;8.13;7.37;;;;;;;10.40;100.00;100583.25;5282887;28;20087;-72
2023/12/25 08:59:56;;;;;;;9.32;7.35;;;;;;;10.40;100.00;100590.22;5283835;28;20443;-70
2023/12/25 09:02:28;;;;;;;9.13;8.20;;;;;;;10.41;100.00;100584.09;5282467;28;20028;-71
2023/12/25 09:04:59;;;;;;;9.40;8.37;;;;;;;10.41;100.00;100581.50;5283138;28;20029;-71
2023/12/25 09:07:31;;;;;;;8.40;7.60;;;;;;;10.41;100.00;100571.06;5283264;28;20055;-72
2023/12/25 09:10:04;;;;;;;8.45;7.65;;;;;;;10.42;100.00;100579.75;5282531;28;20090;-72
2023/12/25 09:12:36;;;;;;;8.82;7.85;;;;;;;10.43;100.00;100576.25;5283007;28;20021;-71
2023/12/25 09:15:07;;;;;;;9.03;8.13;;;;;;;10.43;100.00;100578.88;5282775;28;20090;-71
2023/12/25 09:17:40;;;;;;;9.13;8.13;;;;;;;10.44;100.00;100584.06;5282414;28;20503;-71
2023/12/25 09:20:11;;;;;;;9.57;8.57;;;;;;;10.44;100.00;100601.44;5283687;28;20407;-71
2023/12/25 09:22:44;;;;;;;8.90;8.10;;;;;;;10.44;100.00;100604.91;5282604;28;20090;-71
2023/12/25 09:25:15;;;;;;;9.60;8.60;;;;;;;10.44;100.00;100607.50;5282441;28;20028;-71
2023/12/25 09:27:47;;;;;;;9.37;8.47;;;;;;;10.45;100.00;100621.41;5281191;28;20472;-78
2023/12/25 09:30:18;;;;;;;11.63;9.07;;;;;;;10.46;100.00;100625.72;5282357;28;20070;-70
2023/12/25 09:32:50;;;;;;;10.50;9.40;;;;;;;10.45;100.00;100637.03;5282296;28;20086;-70
2023/12/25 09:35:21;;;;;;;8.73;7.87;;;;;;;10.45;100.00;100631.81;5282509;28;20110;-70
2023/12/25 09:37:53;;;;;;;8.07;7.27;;;;;;;10.48;100.00;100639.59;5282491;28;20036;-70
2023/12/25 09:40:24;;;;;;;7.77;6.87;;;;;;;10.45;100.00;100640.53;5282561;28;20064;-70
2023/12/25 09:42:55;;;;;;;7.37;6.40;;;;;;;10.45;100.00;100650.94;5282397;28;20116;-70
2023/12/25 09:45:33;;;;;;;7.23;6.53;;;;;;;10.44;100.00;100646.59;5285685;28;20025;-70
2023/12/25 09:48:08;;;;;;;6.47;5.88;;;;;;;10.45;100.00;100660.47;5286992;28;20021;-71
2023/12/25 09:50:40;;;;;;;6.70;5.55;;;;;;;10.47;100.00;100653.53;5285591;28;20067;-70
2023/12/25 09:53:12;;;;;;;5.72;5.05;;;;;;;10.45;100.00;100639.63;5286568;28;20056;-70
2023/12/25 09:55:44;;;;;;;5.70;4.93;;;;;;;10.45;100.00;100629.22;5286682;28;20040;-70
2023/12/25 09:58:17;;;;;;;6.20;4.50;;;;;;;10.44;100.00;100633.56;5286492;28;20083;-70
2023/12/25 10:00:48;;;;;;;5.25;4.57;;;;;;;10.43;100.00;100628.38;5286560;28;20090;-70
2023/12/25 10:03:20;;;;;;;5.77;4.67;;;;;;;10.41;100.00;100625.78;5287006;28;20036;-70
2023/12/25 10:05:52;;;;;;;5.57;4.97;;;;;;;10.43;100.00;100631.00;5285852;28;20020;-70
2023/12/25 10:08:24;;;;;;;5.47;4.35;;;;;;;10.26;100.00;100647.69;5286303;28;20277;-70
2023/12/25 10:10:55;;;;;;;2.30;1.93;;;;;;;9.83;100.00;100640.44;5285959;28;20111;-69
2023/12/25 10:13:28;;;;;;;2.23;2.00;;;;;;;9.80;100.00;100643.91;5286216;28;20021;-70
2023/12/25 10:16:02;;;;;;;1.70;1.60;;;;;;;9.58;100.00;100653.72;5286289;28;20186;-70
2023/12/25 10:18:37;;;;;;;3.13;2.35;;;;;;;9.64;100.00;100650.19;5286067;28;20040;-70
2023/12/25 10:21:09;;;;;;;4.63;2.50;;;;;;;9.54;100.00;100652.03;5286171;28;20112;-70
2023/12/25 10:23:41;;;;;;;1.70;1.60;;;;;;;9.36;100.00;100647.88;5285950;28;20127;-70
2023/12/25 10:26:12;;;;;;;3.10;2.70;;;;;;;9.28;100.00;100666.16;5286575;28;20111;-70
2023/12/25 10:28:44;;;;;;;2.37;1.93;;;;;;;9.33;100.00;100658.31;5285933;28;20127;-70
2023/12/25 10:31:25;;;;;;;3.80;2.87;;;;;;;9.25;100.00;100658.38;5285588;28;20515;-70
2023/12/25 10:33:57;;;;;;;2.47;2.28;;;;;;;9.26;100.00;100648.84;5285768;28;20324;-71
2023/12/25 10:36:29;;;;;;;4.45;2.95;;;;;;;9.26;100.00;100656.66;5285821;28;20422;-70
2023/12/25 10:39:00;;;;;;;3.77;2.50;;;;;;;9.22;100.00;100661.00;5285785;28;20082;-70
2023/12/25 10:41:33;;;;;;;4.37;2.83;;;;;;;9.26;100.00;100652.31;5285927;28;20047;-70
2023/12/25 10:44:05;;;;;;;3.92;2.85;;;;;;;9.27;100.00;100645.38;5285694;28;20027;-70
2023/12/25 10:46:40;;;;;;;4.40;3.10;;;;;;;9.23;100.00;100652.34;5286007;28;20033;-70
2023/12/25 10:49:12;;;;;;;4.97;3.13;;;;;;;9.23;100.00;100654.94;5286124;28;20039;-70
2023/12/25 10:51:49;;;;;;;4.80;2.57;;;;;;;9.22;100.00;100655.81;5285235;28;20036;-70
2023/12/25 10:54:22;;;;;;;5.53;2.40;;;;;;;9.21;100.00;100664.50;5285470;28;20376;-69
2023/12/25 10:56:54;;;;;;;4.95;2.40;;;;;;;9.08;100.00;100655.06;5285723;28;20048;-70
2023/12/25 10:59:32;;;;;;;2.78;2.10;;;;;;;9.04;100.00;100656.84;5285406;28;20035;-70
2023/12/25 11:02:09;;;;;;;3.80;2.40;;;;;;;9.08;100.00;100644.66;5285404;28;20497;-70
2023/12/25 11:04:42;;;;;;;5.07;2.50;;;;;;;9.07;100.00;100646.41;5285551;28;20028;-69
2023/12/25 11:07:16;;;;;;;4.65;3.20;;;;;;;9.07;100.00;100658.56;5285032;28;20048;-69
2023/12/25 11:09:48;;;;;;;3.67;2.17;;;;;;;9.02;100.00;100658.59;5285102;28;20413;-69
2023/12/25 11:12:20;;;;;;;4.63;3.05;;;;;;;9.00;100.00;100665.56;5285606;28;20145;-69
2023/12/25 11:14:52;;;;;;;9.55;6.00;;;;;;;9.07;100.00;100666.38;5285072;28;20509;-70
2023/12/25 11:17:24;;;;;;;3.10;2.20;;;;;;;9.06;100.00;100670.69;5284899;28;20045;-70
2023/12/25 11:19:55;;;;;;;2.88;2.15;;;;;;;9.07;100.00;100662.00;5285093;28;20029;-70
2023/12/25 11:22:29;;;;;;;3.27;2.30;;;;;;;9.04;100.00;100667.25;5284917;28;20329;-70
2023/12/25 11:25:03;;;;;;;6.28;3.45;;;;;;;9.03;100.00;100664.66;5284698;28;20037;-70
2023/12/25 11:27:36;;;;;;;7.65;3.33;;;;;;;9.05;100.00;100650.78;5283852;28;20357;-70
2023/12/25 11:30:10;;;;;;;5.22;3.20;;;;;;;9.07;100.00;100642.97;5284792;28;20085;-70
2023/12/25 11:32:45;;;;;;;3.70;2.50;;;;;;;9.06;100.00;100644.69;5284853;28;20111;-70
2023/12/25 11:35:32;;;;;;;5.35;2.42;;;;;;;9.07;100.00;100649.00;5284110;28;20089;-70
2023/12/25 11:38:24;;;;;;;4.18;2.50;;;;;;;9.04;100.00;100661.19;5284341;28;20036;-70
2023/12/25 11:41:00;;;;;;;3.85;2.20;;;;;;;9.04;100.00;100663.78;5284327;28;20032;-69